Time;durP1;ratioP1;P1;durP2;ratioP2;P2;SDS_P1;SDS_P2;PMS_P1;PMS_P2;Temp;Humidity;BMP_temperature;BMP_pressure;BME280_temperature;BME280_humidity;BME280_pressure;Samples;Min_cycle;Max_cycle;Signal;HPM_P1;HPM_P2
2022/12/27 00:00:01;;;;;;;4.95;1.55;;;6.10;99.90;;;;;;6230235;23;20226;-84
2022/12/27 00:02:28;;;;;;;5.70;1.90;;;6.50;1.00;;;;;;6229084;23;20199;-84
2022/12/27 00:04:55;;;;;;;4.80;1.85;;;6.20;99.90;;;;;;6228165;23;20211;-84
2022/12/27 00:07:23;;;;;;;5.45;1.65;;;6.30;99.90;;;;;;6233887;23;20190;-84
2022/12/27 00:09:50;;;;;;;13.15;2.42;;;6.10;47.40;;;;;;6239930;23;20164;-84
2022/12/27 00:12:17;;;;;;;5.90;2.10;;;5.80;99.90;;;;;;6223884;23;20178;-83
2022/12/27 00:14:43;;;;;;;3.33;1.73;;;5.90;97.50;;;;;;6223368;23;20282;-84
2022/12/27 00:17:10;;;;;;;2.28;1.63;;;5.50;1.00;;;;;;6223338;23;20254;-83
2022/12/27 00:19:39;;;;;;;7.25;1.95;;;5.90;99.90;;;;;;6224221;23;20524;-84
2022/12/27 00:22:06;;;;;;;3.53;2.10;;;5.80;99.90;;;;;;6221871;23;20179;-84
2022/12/27 00:24:35;;;;;;;5.30;1.88;;;5.70;99.90;;;;;;6222750;23;20716;-84
2022/12/27 00:27:02;;;;;;;7.43;2.15;;;5.60;99.90;;;;;;6222790;23;20186;-84
2022/12/27 00:29:28;;;;;;;9.32;1.90;;;5.30;1.00;;;;;;6225420;23;20214;-84
2022/12/27 00:31:55;;;;;;;7.78;2.50;;;5.20;1.00;;;;;;6228617;23;20186;-84
2022/12/27 00:34:22;;;;;;;3.25;1.85;;;5.50;99.90;;;;;;6229102;23;20256;-84
2022/12/27 00:36:49;;;;;;;3.05;1.60;;;5.50;1.00;;;;;;6229809;23;20207;-84
2022/12/27 00:39:16;;;;;;;6.28;1.50;;;5.80;1.00;;;;;;6229630;23;20203;-84
2022/12/27 00:41:44;;;;;;;3.90;2.42;;;5.40;99.90;;;;;;6227433;23;20179;-83
2022/12/27 00:44:11;;;;;;;5.78;2.22;;;5.40;1.00;;;;;;6221302;23;20230;-84
2022/12/27 00:46:38;;;;;;;3.20;1.75;;;5.40;1.00;;;;;;6220887;23;20262;-84
2022/12/27 00:49:05;;;;;;;4.10;1.52;;;5.40;99.90;;;;;;6221338;23;20540;-83
2022/12/27 00:51:32;;;;;;;6.20;1.63;;;5.30;1.00;;;;;;6221350;23;20218;-84
2022/12/27 00:53:59;;;;;;;13.02;3.13;;;5.30;1.00;;;;;;6222268;23;20209;-83
2022/12/27 00:56:27;;;;;;;7.35;2.17;;;5.20;1.00;;;;;;6223172;23;20199;-84
2022/12/27 00:58:57;;;;;;;3.42;1.77;;;5.20;1.00;;;;;;6244779;23;20170;-83
2022/12/27 01:01:25;;;;;;;5.35;1.83;;;5.10;1.00;;;;;;6244094;23;20190;-84
2022/12/27 01:03:52;;;;;;;5.10;1.60;;;5.20;1.00;;;;;;6238659;23;20806;-84
2022/12/27 01:06:23;;;;;;;4.40;2.17;;;5.10;1.00;;;;;;6230118;23;20290;-84
2022/12/27 01:08:50;;;;;;;4.55;1.77;;;5.00;1.00;;;;;;6223291;23;20159;-84
2022/12/27 01:11:18;;;;;;;2.60;1.60;;;5.00;1.00;;;;;;6224838;23;20234;-84
2022/12/27 01:13:46;;;;;;;9.65;2.72;;;4.80;1.00;;;;;;6225945;23;20186;-84
2022/12/27 01:16:17;;;;;;;7.00;2.35;;;4.70;1.00;;;;;;6229542;23;20210;-83
2022/12/27 01:18:44;;;;;;;7.40;2.10;;;5.00;1.00;;;;;;6245647;23;20190;-84
2022/12/27 01:21:12;;;;;;;7.88;2.42;;;5.60;99.90;;;;;;6245490;23;20227;-84
2022/12/27 01:23:40;;;;;;;10.27;2.03;;;4.60;48.10;;;;;;6239872;23;20194;-84
2022/12/27 01:26:10;;;;;;;3.15;1.58;;;4.90;99.90;;;;;;6232176;23;20278;-84
2022/12/27 01:28:37;;;;;;;4.70;2.30;;;4.70;1.00;;;;;;6244128;23;20170;-84
2022/12/27 01:31:07;;;;;;;4.22;2.17;;;4.60;1.00;;;;;;6245294;23;20180;-83
2022/12/27 01:33:36;;;;;;;6.88;1.80;;;4.70;99.90;;;;;;6234105;23;20186;-84
2022/12/27 01:36:14;;;;;;;4.82;2.17;;;4.60;99.90;;;;;;6231809;23;20648;-83
2022/12/27 01:38:42;;;;;;;9.95;2.25;;;4.80;1.00;;;;;;6231652;23;20183;-84
2022/12/27 01:43:59;;;;;;;6.80;2.17;;;4.80;99.90;;;;;;6230180;23;20214;-84
2022/12/27 01:46:27;;;;;;;11.77;2.80;;;4.50;99.90;;;;;;6229364;23;20159;-84
2022/12/27 01:48:56;;;;;;;7.70;2.25;;;4.40;99.90;;;;;;6229190;23;20175;-83
2022/12/27 01:51:25;;;;;;;6.20;1.75;;;4.70;1.00;;;;;;6229173;23;20179;-84
2022/12/27 01:53:53;;;;;;;6.38;2.55;;;4.50;99.90;;;;;;6229416;23;20876;-83
2022/12/27 01:56:27;;;;;;;6.13;2.10;;;4.20;1.00;;;;;;6228687;23;20262;-84
2022/12/27 01:58:59;;;;;;;6.20;2.72;;;4.60;1.00;;;;;;6229269;23;20187;-83
2022/12/27 02:01:30;;;;;;;6.07;2.25;;;4.30;1.00;;;;;;6226129;23;20245;-82
2022/12/27 02:04:02;;;;;;;4.15;2.30;;;4.30;99.90;;;;;;6225173;23;20199;-84
2022/12/27 02:06:31;;;;;;;6.88;2.22;;;4.20;1.00;;;;;;6228204;23;20224;-84
2022/12/27 02:09:08;;;;;;;7.25;1.90;;;4.30;99.90;;;;;;6231476;23;20206;-84
2022/12/27 02:11:52;;;;;;;5.22;2.70;;;4.30;1.00;;;;;;6232898;23;20163;-84
2022/12/27 02:14:25;;;;;;;7.25;2.47;;;4.20;1.00;;;;;;6232150;23;20199;-84
2022/12/27 02:16:52;;;;;;;4.00;2.70;;;4.20;1.00;;;;;;6228721;23;20242;-84
2022/12/27 02:19:29;;;;;;;4.63;2.40;;;4.60;1.00;;;;;;6228494;23;20205;-85
2022/12/27 02:22:21;;;;;;;6.22;2.35;;;4.30;99.90;;;;;;6227978;23;20215;-84
2022/12/27 02:25:02;;;;;;;9.88;2.75;;;4.20;1.00;;;;;;6211381;23;20218;-84
2022/12/27 02:27:53;;;;;;;12.35;2.40;;;4.30;99.90;;;;;;6226292;23;20469;-85
2022/12/27 02:30:21;;;;;;;6.10;2.15;;;4.20;99.90;;;;;;6226290;23;20234;-84
2022/12/27 02:32:56;;;;;;;6.55;1.95;;;4.20;1.00;;;;;;6227594;23;20187;-84
2022/12/27 02:35:28;;;;;;;3.55;1.70;;;4.20;99.90;;;;;;6227675;23;20234;-85
2022/12/27 02:38:00;;;;;;;4.80;2.95;;;4.20;1.00;;;;;;6227954;23;20282;-84
2022/12/27 02:55:08;;;;;;;4.28;1.80;;;4.20;1.00;;;;;;6228646;23;20218;-85
2022/12/27 02:57:42;;;;;;;4.63;2.00;;;4.10;1.00;;;;;;6215980;23;20206;-84
2022/12/27 03:03:27;;;;;;;6.10;2.35;;;4.10;1.00;;;;;;6236592;23;20197;-83
2022/12/27 03:06:42;;;;;;;6.95;2.20;;;4.10;1.00;;;;;;6243192;23;20218;-83
2022/12/27 03:18:17;;;;;;;9.63;1.88;;;4.00;1.00;;;;;;6242293;23;20151;-83
2022/12/27 03:26:19;;;;;;;5.88;1.52;;;4.00;1.00;;;;;;6240921;23;20146;-83
2022/12/27 03:34:37;;;;;;;6.55;1.90;;;3.90;1.00;;;;;;6224863;23;20271;-84
2022/12/27 03:40:00;;;;;;;10.63;2.78;;;3.80;99.90;;;;;;6226468;23;20182;-84
2022/12/27 03:45:15;;;;;;;4.47;2.22;;;3.80;18.50;;;;;;6239938;22;20213;-88
2022/12/27 03:47:46;;;;;;;14.05;2.00;;;3.80;99.90;;;;;;6259147;23;20249;-88
2022/12/27 03:50:21;;;;;;;7.53;2.03;;;3.90;99.90;;;;;;6258294;23;20456;-88
2022/12/27 03:52:53;;;;;;;5.93;2.10;;;3.80;99.90;;;;;;6263678;23;20466;-87
2022/12/27 03:55:20;;;;;;;10.90;2.65;;;3.80;99.90;;;;;;6252041;23;20199;-87
2022/12/27 03:57:47;;;;;;;5.45;2.30;;;3.90;99.90;;;;;;6231461;23;20254;-88
2022/12/27 04:00:14;;;;;;;7.78;2.50;;;3.80;99.90;;;;;;6230855;23;20210;-88
2022/12/27 04:02:41;;;;;;;7.55;1.90;;;3.80;99.90;;;;;;6229896;23;20179;-89
2022/12/27 04:05:09;;;;;;;4.63;1.73;;;3.40;99.90;;;;;;6229435;23;20195;-88
2022/12/27 04:07:37;;;;;;;6.60;1.88;;;3.70;99.90;;;;;;6228945;23;20230;-89
2022/12/27 04:34:44;;;;;;;4.18;2.10;;;3.50;1.00;;;;;;6224958;23;20198;-88
2022/12/27 04:37:13;;;;;;;6.43;2.38;;;3.60;1.00;;;;;;6223285;23;20195;-87
2022/12/27 04:54:55;;;;;;;7.05;2.20;;;3.50;99.90;;;;;;6223299;23;20235;-88
2022/12/27 04:56:18;;;;;;;11.40;3.40;;;3.50;99.90;;;;;;6228826;23;20213;-87
2022/12/27 05:04:11;;;;;;;7.72;3.20;;;3.50;1.00;;;;;;6233429;23;20182;-87
2022/12/27 05:06:38;;;;;;;4.55;3.00;;;3.40;99.90;;;;;;6229929;23;20231;-87
2022/12/27 05:14:40;;;;;;;7.63;2.97;;;3.60;99.90;;;;;;6227773;23;20592;-87
2022/12/27 05:17:07;;;;;;;4.85;2.53;;;3.70;1.00;;;;;;6228779;23;20237;-88
2022/12/27 05:19:33;;;;;;;8.55;2.38;;;3.70;1.00;;;;;;6229874;23;20250;-88
2022/12/27 05:27:30;;;;;;;5.60;2.70;;;3.70;1.00;;;;;;6231068;23;20164;-88
2022/12/27 05:29:57;;;;;;;4.78;3.15;;;3.70;1.00;;;;;;6230864;23;20230;-88
2022/12/27 05:32:24;;;;;;;5.03;2.35;;;3.70;1.00;;;;;;6230262;23;20663;-86
2022/12/27 05:34:51;;;;;;;9.93;2.60;;;4.00;99.90;;;;;;6223999;23;20739;-86
2022/12/27 05:37:17;;;;;;;3.92;2.00;;;3.80;99.90;;;;;;6222112;23;20290;-87
2022/12/27 05:39:44;;;;;;;4.20;2.15;;;3.90;1.00;;;;;;6222366;23;20209;-87
2022/12/27 05:42:11;;;;;;;5.57;2.65;;;4.00;1.00;;;;;;6224561;23;20214;-87
2022/12/27 05:44:39;;;;;;;4.80;2.80;;;4.00;27.40;;;;;;6224799;23;20241;-87
2022/12/27 05:47:06;;;;;;;3.50;2.00;;;4.00;1.00;;;;;;6225969;23;20482;-87
2022/12/27 05:49:33;;;;;;;2.92;2.22;;;4.00;35.30;;;;;;6228184;23;20211;-88
2022/12/27 05:52:00;;;;;;;6.45;2.97;;;4.00;1.00;;;;;;6228519;23;20178;-88
2022/12/27 05:54:26;;;;;;;7.70;2.10;;;4.00;1.00;;;;;;6227423;23;20694;-87
2022/12/27 05:56:53;;;;;;;6.63;2.20;;;4.00;1.00;;;;;;6227583;23;20515;-89
2022/12/27 05:59:20;;;;;;;9.90;2.22;;;4.00;1.00;;;;;;6229795;23;20231;-87
2022/12/27 06:01:48;;;;;;;5.50;2.00;;;4.00;1.00;;;;;;6240182;23;20187;-86
2022/12/27 06:04:15;;;;;;;9.50;3.38;;;3.90;99.90;;;;;;6234789;23;20671;-88
2022/12/27 06:06:42;;;;;;;12.30;3.00;;;4.00;1.00;;;;;;6239589;23;20171;-86
2022/12/27 06:09:09;;;;;;;4.50;2.58;;;3.90;1.00;;;;;;6229666;23;20243;-88
2022/12/27 06:11:37;;;;;;;6.82;3.28;;;3.50;99.90;;;;;;6230067;23;20624;-88
2022/12/27 06:14:03;;;;;;;4.05;2.00;;;3.60;99.90;;;;;;6239105;23;20190;-86
2022/12/27 06:16:30;;;;;;;2.95;2.15;;;3.60;99.90;;;;;;6239496;23;20195;-88
2022/12/27 06:18:58;;;;;;;9.38;3.10;;;3.80;99.90;;;;;;6235308;23;20214;-87
2022/12/27 06:21:25;;;;;;;7.05;2.40;;;3.70;99.90;;;;;;6234512;23;20175;-87
2022/12/27 06:23:52;;;;;;;6.25;2.42;;;3.70;99.90;;;;;;6232278;23;20243;-88
2022/12/27 06:26:21;;;;;;;8.93;3.10;;;3.60;99.90;;;;;;6231183;23;20234;-87
2022/12/27 06:28:48;;;;;;;7.15;2.10;;;3.70;1.00;;;;;;6230583;23;20227;-88
2022/12/27 06:31:16;;;;;;;3.65;2.13;;;3.50;99.90;;;;;;6230893;23;20191;-89
2022/12/27 06:33:43;;;;;;;2.35;2.15;;;3.70;1.00;;;;;;6234948;23;20265;-88
2022/12/27 06:36:14;;;;;;;4.40;2.70;;;3.50;99.90;;;;;;6244074;23;20211;-86
2022/12/27 06:38:41;;;;;;;4.28;3.40;;;3.40;1.00;;;;;;6237384;23;20159;-88
2022/12/27 06:41:10;;;;;;;2.92;2.25;;;3.40;1.00;;;;;;6229583;23;20195;-87
2022/12/27 06:43:37;;;;;;;4.25;2.10;;;3.40;1.00;;;;;;6230146;23;20179;-88
2022/12/27 06:46:05;;;;;;;6.05;2.13;;;3.40;1.00;;;;;;6228921;23;20209;-87
2022/12/27 06:48:32;;;;;;;2.80;1.90;;;3.40;1.00;;;;;;6229535;23;20266;-87
2022/12/27 06:51:03;;;;;;;8.07;2.40;;;3.50;1.00;;;;;;6244010;23;20168;-88
2022/12/27 06:53:35;;;;;;;4.05;2.47;;;3.50;99.90;;;;;;6243820;23;20231;-86
2022/12/27 06:56:03;;;;;;;5.30;2.28;;;3.40;1.00;;;;;;6243788;23;20191;-85
2022/12/27 06:58:30;;;;;;;6.38;2.33;;;3.60;99.90;;;;;;6243982;23;20168;-86
2022/12/27 07:00:57;;;;;;;5.00;2.20;;;3.60;99.90;;;;;;6243170;23;20174;-87
2022/12/27 07:03:24;;;;;;;5.22;2.67;;;3.70;99.90;;;;;;6243180;23;20166;-87
2022/12/27 07:05:51;;;;;;;3.00;2.72;;;3.70;99.90;;;;;;6243545;23;20185;-87
2022/12/27 07:08:17;;;;;;;12.40;2.95;;;3.70;99.90;;;;;;6243605;23;20159;-85
2022/12/27 07:10:46;;;;;;;2.95;2.45;;;3.60;99.90;;;;;;6244003;23;21174;-87
2022/12/27 07:13:12;;;;;;;6.05;2.53;;;3.60;99.90;;;;;;6243220;23;20156;-86
2022/12/27 07:15:39;;;;;;;7.43;2.55;;;3.70;99.90;;;;;;6229838;23;20210;-88
2022/12/27 07:18:06;;;;;;;2.22;2.13;;;3.40;1.00;;;;;;6231612;23;20189;-88
2022/12/27 07:20:33;;;;;;;4.78;2.05;;;3.60;1.00;;;;;;6231301;23;20262;-89
2022/12/27 07:23:00;;;;;;;7.22;2.75;;;3.60;99.90;;;;;;6230330;23;20183;-88
2022/12/27 07:25:27;;;;;;;4.22;2.88;;;3.60;99.90;;;;;;6231366;23;20199;-89
2022/12/27 07:27:55;;;;;;;3.97;2.13;;;3.70;99.90;;;;;;6231096;23;20182;-88
2022/12/27 07:30:22;;;;;;;7.57;3.05;;;3.70;1.00;;;;;;6230877;23;20226;-89
2022/12/27 07:32:49;;;;;;;7.93;3.20;;;3.80;99.90;;;;;;6230664;23;20202;-88
2022/12/27 07:35:15;;;;;;;8.02;2.78;;;3.80;99.90;;;;;;6230186;23;20480;-88
2022/12/27 07:37:42;;;;;;;6.70;2.05;;;3.80;1.00;;;;;;6230257;23;20255;-88
2022/12/27 07:40:10;;;;;;;3.53;2.40;;;3.80;99.90;;;;;;6229442;23;20595;-88
2022/12/27 07:42:36;;;;;;;4.95;3.00;;;3.80;41.50;;;;;;6234834;23;20215;-87
2022/12/27 07:45:05;;;;;;;3.08;2.70;;;3.80;99.90;;;;;;6243068;23;20194;-86
2022/12/27 07:47:32;;;;;;;6.00;1.98;;;3.80;99.90;;;;;;6235771;23;20210;-88
2022/12/27 07:49:59;;;;;;;4.65;2.35;;;3.50;99.90;;;;;;6223046;23;20258;-86
2022/12/27 07:52:48;;;;;;;5.20;2.35;;;4.10;99.90;;;;;;6223477;23;20503;-87
2022/12/27 07:55:15;;;;;;;5.32;2.33;;;;;;;;;;6230548;23;20201;-88
2022/12/27 07:57:42;;;;;;;2.50;2.25;;;3.90;1.00;;;;;;6229654;23;20222;-88
2022/12/27 08:00:11;;;;;;;9.13;2.42;;;4.10;1.00;;;;;;6228497;23;20516;-88
2022/12/27 08:02:38;;;;;;;2.45;2.20;;;4.00;1.00;;;;;;6229660;23;20231;-87
2022/12/27 08:05:06;;;;;;;3.47;2.40;;;4.30;86.20;;;;;;6230282;23;20532;-89
2022/12/27 08:07:33;;;;;;;5.28;2.50;;;3.90;1.00;;;;;;6237216;23;20194;-88
2022/12/27 08:10:00;;;;;;;4.03;2.60;;;3.90;1.00;;;;;;6242276;23;20199;-85
2022/12/27 08:12:26;;;;;;;7.53;3.25;;;3.90;1.00;;;;;;6231728;23;20235;-88
2022/12/27 08:14:53;;;;;;;3.08;2.28;;;3.90;1.00;;;;;;6231462;23;20199;-88
2022/12/27 08:17:26;;;;;;;2.92;2.40;;;3.90;1.00;;;;;;6224648;23;20223;-87
2022/12/27 08:19:53;;;;;;;2.60;2.13;;;3.90;1.00;;;;;;6220960;23;20238;-89
2022/12/27 08:22:20;;;;;;;3.25;2.55;;;4.00;1.00;;;;;;6221849;23;20183;-86
2022/12/27 08:24:47;;;;;;;5.70;2.63;;;4.00;1.00;;;;;;6220974;23;20218;-88
2022/12/27 08:27:20;;;;;;;4.50;2.40;;;4.00;1.00;;;;;;6220070;23;20227;-87
2022/12/27 08:29:47;;;;;;;6.60;3.22;;;4.00;1.00;;;;;;6219870;23;20210;-87
2022/12/27 08:32:14;;;;;;;3.83;2.17;;;4.10;1.00;;;;;;6222755;23;20176;-88
2022/12/27 08:34:43;;;;;;;5.25;2.50;;;4.20;1.00;;;;;;6225971;23;20225;-88
2022/12/27 08:37:09;;;;;;;5.47;2.75;;;4.20;27.00;;;;;;6225892;23;20209;-90
2022/12/27 08:39:36;;;;;;;3.70;2.20;;;4.40;1.00;;;;;;6228670;23;20210;-88
2022/12/27 08:42:03;;;;;;;3.58;3.28;;;4.30;1.00;;;;;;6228223;23;20671;-88
2022/12/27 08:44:30;;;;;;;3.90;2.33;;;4.60;1.00;;;;;;6231859;23;20214;-87
2022/12/27 08:46:58;;;;;;;6.82;2.75;;;4.80;99.90;;;;;;6235076;23;20160;-87
2022/12/27 08:49:25;;;;;;;4.40;2.60;;;4.60;99.90;;;;;;6236801;23;20174;-89
2022/12/27 08:51:53;;;;;;;7.95;2.53;;;4.70;99.90;;;;;;6232084;23;20179;-89
2022/12/27 08:54:20;;;;;;;4.20;3.05;;;4.70;1.00;;;;;;6232798;23;20218;-89
2022/12/27 08:56:47;;;;;;;2.80;2.50;;;4.80;1.00;;;;;;6231273;23;20191;-88
2022/12/27 08:59:13;;;;;;;4.50;3.15;;;4.90;99.90;;;;;;6232637;23;20190;-89
2022/12/27 09:01:40;;;;;;;8.35;3.50;;;5.00;1.00;;;;;;6231305;23;20301;-87
2022/12/27 09:04:07;;;;;;;6.22;2.75;;;5.00;93.70;;;;;;6230255;23;20206;-88
2022/12/27 09:06:34;;;;;;;5.10;2.97;;;4.90;1.00;;;;;;6229679;23;20176;-88
2022/12/27 09:09:02;;;;;;;5.43;3.33;;;5.00;1.00;;;;;;6230047;23;20190;-89
2022/12/27 09:11:31;;;;;;;2.90;2.70;;;4.90;99.90;;;;;;6234026;23;20179;-86
2022/12/27 09:14:00;;;;;;;5.10;2.42;;;5.00;1.00;;;;;;6239584;23;20186;-87
2022/12/27 09:16:27;;;;;;;3.80;3.15;;;5.00;1.00;;;;;;6243470;23;20231;-87
2022/12/27 09:18:56;;;;;;;7.07;2.95;;;5.10;1.00;;;;;;6241660;23;20194;-87
2022/12/27 09:21:25;;;;;;;10.88;3.20;;;5.00;1.00;;;;;;6241424;23;20174;-87
2022/12/27 09:23:52;;;;;;;2.75;2.22;;;5.10;1.00;;;;;;6242744;23;20167;-87
2022/12/27 09:26:21;;;;;;;6.80;2.67;;;5.20;1.00;;;;;;6240851;23;20207;-88
2022/12/27 09:28:49;;;;;;;2.88;2.65;;;5.10;1.00;;;;;;6236511;23;20599;-88
2022/12/27 09:31:18;;;;;;;7.30;3.10;;;5.00;99.90;;;;;;6236014;23;20179;-87
2022/12/27 09:33:45;;;;;;;3.75;2.80;;;5.20;1.00;;;;;;6233676;23;20206;-88
2022/12/27 09:36:13;;;;;;;3.58;3.28;;;5.30;1.00;;;;;;6232566;23;20210;-88
2022/12/27 09:38:41;;;;;;;6.05;2.95;;;5.20;1.00;;;;;;6232631;23;20226;-88
2022/12/27 09:41:17;;;;;;;6.38;3.10;;;5.20;1.00;;;;;;6243776;23;20182;-88
2022/12/27 09:43:56;;;;;;;5.05;2.70;;;5.20;1.00;;;;;;6243441;23;20148;-87
2022/12/27 09:46:28;;;;;;;5.88;2.70;;;5.20;1.00;;;;;;6243964;22;20206;-83
2022/12/27 09:48:56;;;;;;;5.68;3.65;;;5.30;20.70;;;;;;6253997;22;20159;-83
2022/12/27 09:51:26;;;;;;;2.47;2.28;;;5.20;1.00;;;;;;6262078;22;20198;-83
2022/12/27 09:53:59;;;;;;;7.18;3.00;;;5.30;1.00;;;;;;6261956;22;20163;-82
2022/12/27 09:56:29;;;;;;;7.75;3.47;;;5.30;1.00;;;;;;6228619;22;20247;-83
2022/12/27 09:59:04;;;;;;;4.20;3.00;;;5.40;1.00;;;;;;6225990;23;20241;-82
2022/12/27 10:01:33;;;;;;;6.53;2.50;;;5.50;99.90;;;;;;6225921;23;20553;-83
2022/12/27 10:04:01;;;;;;;11.23;3.00;;;5.60;1.00;;;;;;6224159;23;20206;-83
2022/12/27 10:06:47;;;;;;;6.22;3.40;;;5.40;1.00;;;;;;6223555;23;20223;-82
2022/12/27 10:09:32;;;;;;;3.35;2.92;;;5.50;1.00;;;;;;6223407;23;20239;-82
2022/12/27 10:12:04;;;;;;;5.70;3.45;;;5.50;1.00;;;;;;6223585;23;20167;-83
2022/12/27 10:14:48;;;;;;;7.65;3.10;;;5.80;1.00;;;;;;6223214;23;20228;-82
2022/12/27 10:17:38;;;;;;;8.93;3.50;;;5.60;1.00;;;;;;6223272;23;20194;-83
2022/12/27 10:20:18;;;;;;;9.43;2.88;;;6.20;1.00;;;;;;6223083;23;20164;-83
2022/12/27 10:22:49;;;;;;;5.93;3.15;;;5.90;1.00;;;;;;6223072;23;20239;-83
2022/12/27 10:25:20;;;;;;;7.15;3.22;;;5.80;1.00;;;;;;6223561;23;20199;-82
2022/12/27 10:28:01;;;;;;;5.88;3.58;;;5.70;1.00;;;;;;6222585;23;20217;-82
2022/12/27 10:30:31;;;;;;;6.13;2.90;;;5.60;1.00;;;;;;6226071;23;20191;-83
2022/12/27 10:32:58;;;;;;;6.50;3.50;;;5.60;1.00;;;;;;6227304;23;20172;-83
2022/12/27 10:35:25;;;;;;;3.28;2.88;;;5.60;57.50;;;;;;6223791;23;20199;-82
2022/12/27 10:37:52;;;;;;;6.38;3.20;;;5.40;99.90;;;;;;6226919;23;20202;-83
2022/12/27 10:40:23;;;;;;;9.52;4.15;;;5.70;1.00;;;;;;6243437;23;20160;-82
2022/12/27 10:43:01;;;;;;;7.57;3.10;;;5.60;1.00;;;;;;6242628;23;20171;-82
2022/12/27 10:45:33;;;;;;;6.85;3.00;;;5.70;1.00;;;;;;6242970;23;20202;-82
2022/12/27 10:48:16;;;;;;;3.50;3.10;;;5.90;99.90;;;;;;6230011;23;20220;-82
2022/12/27 10:50:50;;;;;;;5.85;3.10;;;5.70;13.70;;;;;;6225317;23;20163;-82
2022/12/27 10:53:32;;;;;;;6.15;3.58;;;5.70;1.00;;;;;;6224587;23;20206;-83
2022/12/27 10:56:12;;;;;;;4.45;3.65;;;5.80;1.00;;;;;;6223764;23;20726;-83
2022/12/27 10:58:42;;;;;;;7.72;4.55;;;5.90;1.00;;;;;;6223004;23;20262;-83
2022/12/27 11:01:18;;;;;;;3.80;3.50;;;5.90;1.00;;;;;;6222099;23;20271;-83
2022/12/27 11:03:45;;;;;;;5.82;3.92;;;6.00;1.00;;;;;;6221831;23;20170;-82
2022/12/27 11:06:20;;;;;;;5.63;3.65;;;5.90;1.00;;;;;;6222495;23;20201;-83
2022/12/27 11:08:47;;;;;;;5.47;3.88;;;6.10;1.00;;;;;;6221915;23;20166;-83
2022/12/27 11:11:18;;;;;;;3.70;3.40;;;6.00;1.00;;;;;;6221957;23;20252;-83
2022/12/27 11:13:46;;;;;;;3.70;3.35;;;6.10;1.00;;;;;;6222258;23;20244;-83
2022/12/27 11:16:18;;;;;;;5.18;3.70;;;6.00;1.00;;;;;;6225768;23;20195;-83
2022/12/27 11:18:50;;;;;;;7.78;4.47;;;6.60;99.90;;;;;;6232915;23;20269;-82
2022/12/27 11:21:21;;;;;;;3.35;3.05;;;6.00;99.90;;;;;;6232227;23;20158;-82
2022/12/27 11:23:51;;;;;;;8.57;3.20;;;6.00;1.00;;;;;;6233258;23;20167;-82
2022/12/27 11:26:24;;;;;;;3.25;2.85;;;6.00;1.00;;;;;;6235782;23;20195;-82
2022/12/27 11:28:54;;;;;;;3.75;2.90;;;6.00;99.90;;;;;;6237786;23;20159;-82
2022/12/27 11:31:47;;;;;;;4.82;2.80;;;5.90;1.00;;;;;;6232279;23;20187;-82
2022/12/27 11:34:17;;;;;;;10.10;3.78;;;6.00;1.00;;;;;;6223196;23;20179;-82
2022/12/27 11:36:48;;;;;;;6.25;3.13;;;6.00;1.00;;;;;;6228035;23;20163;-82
2022/12/27 11:39:43;;;;;;;7.25;3.80;;;6.00;1.00;;;;;;6227125;23;20267;-82
2022/12/27 11:42:22;;;;;;;6.88;3.47;;;6.00;1.00;;;;;;6226896;23;20274;-82
2022/12/27 11:45:03;;;;;;;5.82;3.33;;;6.00;1.00;;;;;;6223944;23;20278;-81
2022/12/27 11:47:41;;;;;;;3.60;3.30;;;5.80;99.90;;;;;;6224592;23;20155;-82
2022/12/27 11:50:32;;;;;;;7.30;3.72;;;5.90;13.60;;;;;;6223866;23;20174;-83
2022/12/27 11:53:12;;;;;;;6.15;2.95;;;5.90;99.90;;;;;;6222945;23;20203;-83
2022/12/27 11:56:12;;;;;;;10.18;3.70;;;6.00;4.70;;;;;;6220210;23;20274;-83
2022/12/27 11:59:18;;;;;;;9.90;4.03;;;6.10;1.00;;;;;;6218386;23;20211;-83
2022/12/27 12:02:14;;;;;;;7.38;4.05;;;6.10;1.00;;;;;;6216076;23;20175;-82
2022/12/27 12:05:07;;;;;;;7.82;4.25;;;6.10;1.00;;;;;;6220314;23;20247;-82
2022/12/27 12:07:53;;;;;;;10.55;3.90;;;6.10;1.00;;;;;;6233317;23;20230;-83
2022/12/27 12:10:29;;;;;;;8.93;4.22;;;6.20;99.90;;;;;;6223159;23;20163;-83
2022/12/27 12:13:28;;;;;;;10.02;3.15;;;6.10;99.90;;;;;;6222151;23;20163;-82
2022/12/27 12:16:12;;;;;;;4.65;3.55;;;6.20;1.00;;;;;;6223030;23;20269;-82
2022/12/27 12:18:53;;;;;;;11.27;4.00;;;6.20;1.00;;;;;;6222778;23;20266;-82
2022/12/27 12:21:26;;;;;;;5.93;3.05;;;6.20;99.90;;;;;;6230818;23;20238;-83
2022/12/27 12:24:30;;;;;;;4.97;3.25;;;6.20;99.90;;;;;;6231123;23;20203;-83
2022/12/27 12:27:21;;;;;;;4.05;3.50;;;6.80;1.00;;;;;;6231278;23;20247;-83
2022/12/27 12:30:04;;;;;;;6.88;3.80;;;6.40;99.90;;;;;;6233220;23;20577;-82
2022/12/27 12:32:43;;;;;;;4.38;3.65;;;6.30;99.90;;;;;;6239032;23;20148;-81
2022/12/27 12:35:40;;;;;;;11.75;5.03;;;6.30;99.90;;;;;;6241268;23;20210;-82
2022/12/27 12:38:27;;;;;;;5.30;4.20;;;6.40;99.90;;;;;;6242101;23;20183;-82
2022/12/27 12:41:21;;;;;;;10.18;3.90;;;6.60;1.00;;;;;;6240067;23;20183;-82
2022/12/27 12:44:09;;;;;;;5.90;3.80;;;6.20;99.90;;;;;;6228016;23;20175;-82
2022/12/27 12:46:44;;;;;;;8.55;3.70;;;6.20;99.90;;;;;;6222587;23;20273;-83
2022/12/27 12:49:26;;;;;;;5.32;3.58;;;6.20;99.90;;;;;;6227603;23;20246;-83
2022/12/27 12:52:23;;;;;;;8.40;3.80;;;6.20;1.00;;;;;;6233097;23;20163;-82
2022/12/27 12:55:04;;;;;;;5.53;4.93;;;6.10;1.00;;;;;;6183210;23;20282;-83
2022/12/27 12:57:47;;;;;;;5.43;3.97;;;6.10;1.00;;;;;;6223030;23;20480;-83
2022/12/27 13:00:37;;;;;;;6.47;4.03;;;5.90;99.90;;;;;;6222374;23;20202;-82
2022/12/27 13:03:21;;;;;;;10.13;3.80;;;6.10;1.00;;;;;;6221749;23;20239;-83
2022/12/27 13:05:55;;;;;;;9.25;3.78;;;6.10;99.90;;;;;;6228748;23;20206;-82
2022/12/27 13:08:30;;;;;;;3.90;3.42;;;6.10;1.00;;;;;;6219633;23;20207;-82
2022/12/27 13:11:28;;;;;;;6.35;3.55;;;6.20;1.00;;;;;;6221451;23;20170;-83
2022/12/27 13:14:15;;;;;;;5.53;3.42;;;6.10;1.00;;;;;;6221403;23;20211;-83
2022/12/27 13:16:49;;;;;;;9.68;3.85;;;6.10;1.00;;;;;;6222492;23;20616;-83
2022/12/27 13:19:38;;;;;;;5.05;3.83;;;6.10;1.00;;;;;;6226038;23;20526;-82
2022/12/27 13:22:13;;;;;;;5.95;3.30;;;6.20;99.90;;;;;;6240477;23;20163;-82
2022/12/27 13:24:54;;;;;;;17.95;4.65;;;6.20;99.90;;;;;;6241608;23;20202;-82
2022/12/27 13:27:31;;;;;;;9.68;3.63;;;6.30;1.00;;;;;;6240508;23;20163;-82
2022/12/27 13:30:05;;;;;;;4.05;3.30;;;6.30;1.00;;;;;;6240317;23;20151;-82
2022/12/27 13:32:45;;;;;;;6.22;2.90;;;6.50;35.40;;;;;;6237784;23;20242;-82
2022/12/27 13:35:30;;;;;;;5.82;3.25;;;6.20;52.10;;;;;;6235634;23;20199;-83
2022/12/27 13:38:10;;;;;;;4.28;2.85;;;6.30;1.00;;;;;;6238776;23;20207;-82
2022/12/27 13:41:15;;;;;;;8.40;3.03;;;6.10;99.90;;;;;;6241342;23;20163;-83
2022/12/27 13:44:06;;;;;;;9.98;4.10;;;5.90;99.90;;;;;;6205041;23;20207;-82
2022/12/27 13:47:33;;;;;;;9.32;3.05;;;5.80;99.90;;;;;;6228165;23;20237;-82
2022/12/27 13:50:26;;;;;;;10.63;3.83;;;6.30;1.00;;;;;;6134073;23;20213;-83
2022/12/27 13:53:13;;;;;;;7.28;2.88;;;6.30;1.00;;;;;;6134564;23;20158;-83
2022/12/27 13:55:54;;;;;;;5.30;3.10;;;6.40;1.00;;;;;;6218785;23;20274;-82
2022/12/27 13:58:47;;;;;;;8.18;3.80;;;6.30;99.90;;;;;;6224066;23;20649;-83
2022/12/27 14:01:31;;;;;;;10.30;3.22;;;6.20;1.00;;;;;;6221257;23;20218;-82
2022/12/27 14:04:23;;;;;;;8.95;3.90;;;6.20;1.00;;;;;;6229341;23;20194;-83
2022/12/27 14:07:10;;;;;;;5.18;3.65;;;6.10;1.00;;;;;;6225892;23;20187;-83
2022/12/27 14:09:59;;;;;;;9.90;3.85;;;6.10;99.90;;;;;;6223618;23;20296;-83
2022/12/27 14:12:51;;;;;;;4.20;2.97;;;6.00;2.40;;;;;;6225921;23;20187;-83
2022/12/27 14:15:21;;;;;;;4.53;2.60;;;6.00;21.80;;;;;;6228736;23;20692;-83
2022/12/27 14:18:01;;;;;;;5.60;3.30;;;6.00;99.90;;;;;;6231514;23;20186;-82
2022/12/27 14:20:53;;;;;;;4.40;3.63;;;5.80;99.90;;;;;;6231217;23;20198;-82
2022/12/27 14:23:52;;;;;;;4.65;3.35;;;6.10;60.80;;;;;;6225924;23;20662;-82
2022/12/27 14:26:55;;;;;;;8.20;3.55;;;6.30;99.90;;;;;;6221482;23;20753;-83
2022/12/27 14:30:01;;;;;;;4.22;3.10;;;6.00;1.00;;;;;;6179997;23;20175;-81
2022/12/27 14:33:08;;;;;;;10.30;5.43;;;6.00;1.00;;;;;;6225010;23;20239;-83
2022/12/27 14:36:28;;;;;;;7.55;3.42;;;5.90;11.50;;;;;;6224784;23;20199;-83
2022/12/27 14:39:24;;;;;;;7.68;3.47;;;5.80;1.00;;;;;;6171188;23;20222;-82
2022/12/27 14:42:28;;;;;;;4.03;2.95;;;5.80;49.00;;;;;;6182770;23;20179;-82
2022/12/27 14:45:21;;;;;;;10.23;3.85;;;5.70;99.90;;;;;;6229541;23;20277;-82
2022/12/27 14:48:17;;;;;;;8.32;4.70;;;5.70;99.90;;;;;;6231278;23;20164;-81
2022/12/27 14:51:17;;;;;;;3.88;3.40;;;5.70;99.90;;;;;;6237995;23;20593;-82
2022/12/27 14:54:18;;;;;;;5.93;3.83;;;5.70;99.90;;;;;;6238092;23;20187;-83
2022/12/27 14:56:55;;;;;;;4.75;4.35;;;5.70;99.90;;;;;;6233709;23;20194;-83
2022/12/27 14:59:32;;;;;;;7.57;3.75;;;5.70;99.90;;;;;;6233839;23;20219;-83
2022/12/27 15:02:12;;;;;;;8.48;4.63;;;5.70;99.90;;;;;;6236336;23;20163;-82
2022/12/27 15:05:07;;;;;;;9.07;3.92;;;5.70;99.90;;;;;;6233207;23;20199;-83
2022/12/27 15:08:10;;;;;;;4.60;3.22;;;5.70;99.90;;;;;;6233514;23;20242;-82
2022/12/27 15:10:54;;;;;;;8.35;4.00;;;5.70;99.90;;;;;;6227781;23;20175;-81
2022/12/27 15:13:29;;;;;;;14.52;4.80;;;5.30;1.00;;;;;;6228610;23;20164;-83
2022/12/27 15:16:02;;;;;;;7.53;4.03;;;5.40;1.00;;;;;;6231278;23;20710;-82
2022/12/27 15:18:48;;;;;;;8.02;4.47;;;5.60;1.00;;;;;;6234682;23;20267;-83
2022/12/27 15:21:26;;;;;;;8.95;3.63;;;5.60;1.00;;;;;;6234253;23;20175;-82